createdAt,value
2022-10-07T00:00:53.727Z,1.70
2022-10-07T00:03:22.405Z,1.30
2022-10-07T00:06:00.311Z,1.23
2022-10-07T00:08:27.314Z,1.77
2022-10-07T00:10:54.219Z,1.43
2022-10-07T00:13:21.209Z,1.37
2022-10-07T00:15:47.943Z,1.50
2022-10-07T00:18:14.676Z,2.20
2022-10-07T00:20:41.372Z,1.63
2022-10-07T00:23:09.362Z,1.33
2022-10-07T00:25:39.882Z,1.90
2022-10-07T00:28:06.728Z,1.40
2022-10-07T00:30:33.717Z,1.53
2022-10-07T00:33:00.689Z,1.80
2022-10-07T00:35:27.647Z,1.50
2022-10-07T00:37:54.749Z,1.23
2022-10-07T00:40:21.501Z,1.40
2022-10-07T00:42:48.290Z,1.90
2022-10-07T00:45:17.760Z,1.60
2022-10-07T00:47:48.470Z,1.73
2022-10-07T00:50:23.784Z,1.63
2022-10-07T00:52:55.451Z,1.40
2022-10-07T00:55:26.689Z,1.50
2022-10-07T00:57:57.310Z,2.33
2022-10-07T01:00:24.215Z,1.40
2022-10-07T01:02:52.062Z,1.60
2022-10-07T01:05:20.631Z,1.30
2022-10-07T01:07:49.861Z,1.50
2022-10-07T01:10:20.219Z,1.53
2022-10-07T01:13:14.589Z,1.63
2022-10-07T01:16:12.739Z,1.60
2022-10-07T01:18:49.571Z,1.50
2022-10-07T01:21:22.327Z,1.60
2022-10-07T01:24:15.133Z,1.80
2022-10-07T01:27:03.354Z,1.70
2022-10-07T01:29:41.179Z,1.40
2022-10-07T01:32:32.546Z,2.00
2022-10-07T01:35:05.935Z,1.83
2022-10-07T01:37:37.892Z,1.50
2022-10-07T01:40:32.229Z,1.87
2022-10-07T01:43:01.643Z,1.67
2022-10-07T01:45:31.054Z,1.43
2022-10-07T01:47:59.460Z,2.27
2022-10-07T01:50:29.613Z,2.17
2022-10-07T01:53:26.617Z,1.50
2022-10-07T01:56:42.092Z,1.63
2022-10-07T01:59:27.366Z,2.00
2022-10-07T02:02:11.166Z,1.70
2022-10-07T02:04:41.296Z,2.27
2022-10-07T02:07:46.130Z,1.80
2022-10-07T02:10:31.000Z,1.77
2022-10-07T02:13:04.334Z,1.87
2022-10-07T02:15:42.732Z,2.00
2022-10-07T02:18:16.378Z,1.33
2022-10-07T02:20:48.077Z,2.03
2022-10-07T02:23:17.839Z,2.23
2022-10-07T02:25:48.935Z,2.37
2022-10-07T02:28:22.794Z,1.90
2022-10-07T02:30:56.002Z,1.70
2022-10-07T02:33:27.718Z,2.63
2022-10-07T02:36:10.734Z,2.17
2022-10-07T02:38:39.704Z,2.17
2022-10-07T02:41:12.941Z,2.00
2022-10-07T02:43:56.234Z,2.43
2022-10-07T02:46:32.648Z,2.10
2022-10-07T02:49:07.695Z,2.10
2022-10-07T02:51:46.563Z,2.30
2022-10-07T02:54:18.048Z,1.93
2022-10-07T02:56:47.545Z,2.20
2022-10-07T02:59:16.616Z,2.77
2022-10-07T03:01:48.411Z,2.27
2022-10-07T03:04:16.200Z,2.40
2022-10-07T03:06:44.286Z,2.30
2022-10-07T03:09:11.955Z,2.17
2022-10-07T03:11:40.671Z,2.43
2022-10-07T03:14:08.384Z,2.53
2022-10-07T03:16:35.431Z,2.30
2022-10-07T03:19:02.550Z,2.17
2022-10-07T03:21:40.545Z,2.23
2022-10-07T03:24:08.029Z,2.10
2022-10-07T03:26:41.271Z,2.30
2022-10-07T03:29:10.232Z,2.37
2022-10-07T03:31:37.249Z,2.50
2022-10-07T03:34:04.146Z,2.33
2022-10-07T03:36:31.515Z,2.50
2022-10-07T03:38:58.590Z,2.33
2022-10-07T03:41:25.766Z,2.57
2022-10-07T03:43:57.478Z,2.50
2022-10-07T03:46:25.572Z,2.47
2022-10-07T03:48:52.762Z,3.17
2022-10-07T03:51:20.001Z,2.53
2022-10-07T03:53:46.832Z,2.60
2022-10-07T03:56:13.849Z,2.10
2022-10-07T03:58:43.053Z,2.77
2022-10-07T04:01:15.781Z,2.33
2022-10-07T04:03:56.035Z,3.03
2022-10-07T04:06:24.111Z,2.63
2022-10-07T04:08:53.025Z,2.70
2022-10-07T04:11:20.004Z,3.00
2022-10-07T04:13:48.195Z,2.43
2022-10-07T04:16:17.890Z,2.80
2022-10-07T04:18:45.382Z,2.60
2022-10-07T04:21:12.410Z,2.17
2022-10-07T04:23:41.420Z,2.97
2022-10-07T04:26:10.527Z,2.67
2022-10-07T04:28:40.696Z,3.20
2022-10-07T04:31:11.875Z,2.80
2022-10-07T04:33:46.318Z,3.50
2022-10-07T04:36:18.489Z,2.67
2022-10-07T04:38:51.406Z,2.93
2022-10-07T04:41:22.571Z,3.07
2022-10-07T04:43:54.239Z,2.73
2022-10-07T04:46:24.981Z,3.33
2022-10-07T04:48:59.390Z,3.30
2022-10-07T04:51:27.844Z,2.97
2022-10-07T04:53:57.950Z,3.63
2022-10-07T04:56:33.543Z,3.27
2022-10-07T04:59:03.383Z,3.03
2022-10-07T05:01:30.738Z,4.07
2022-10-07T05:03:58.190Z,3.10
2022-10-07T05:06:26.339Z,3.40
2022-10-07T05:08:54.333Z,3.83
2022-10-07T05:11:22.743Z,3.07
2022-10-07T05:13:57.890Z,3.30
2022-10-07T05:16:25.803Z,3.53
2022-10-07T05:18:52.564Z,2.93
2022-10-07T05:21:19.941Z,3.13
2022-10-07T05:23:49.223Z,4.17
2022-10-07T05:26:21.609Z,3.17
2022-10-07T05:28:53.524Z,3.40
2022-10-07T05:31:27.747Z,2.93
2022-10-07T05:33:57.775Z,3.23
2022-10-07T05:36:26.220Z,3.60
2022-10-07T05:38:58.125Z,3.80
2022-10-07T05:41:30.245Z,3.60
2022-10-07T05:44:01.090Z,3.80
2022-10-07T05:46:28.281Z,3.97
2022-10-07T05:48:58.056Z,3.87
2022-10-07T05:51:29.940Z,2.97
2022-10-07T05:53:58.552Z,3.57
2022-10-07T05:56:32.599Z,3.70
2022-10-07T05:58:59.397Z,3.47
2022-10-07T06:01:29.025Z,3.13
2022-10-07T06:03:58.526Z,3.27
2022-10-07T06:06:30.173Z,3.77
2022-10-07T06:09:19.850Z,3.57
2022-10-07T06:12:06.642Z,3.47
2022-10-07T06:14:35.840Z,3.43
2022-10-07T06:17:04.766Z,3.30
2022-10-07T06:19:32.000Z,3.53
2022-10-07T06:22:01.591Z,3.10
2022-10-07T06:24:28.399Z,3.73
2022-10-07T06:26:55.986Z,3.20
2022-10-07T06:29:23.994Z,3.33
2022-10-07T06:31:51.011Z,3.50
2022-10-07T06:34:19.263Z,3.97
2022-10-07T06:36:46.453Z,3.20
2022-10-07T06:39:16.696Z,3.70
2022-10-07T06:41:44.357Z,3.23
2022-10-07T06:44:38.764Z,3.30
2022-10-07T06:47:11.623Z,3.33
2022-10-07T06:49:39.833Z,3.67
2022-10-07T06:52:07.011Z,3.90
2022-10-07T06:54:34.632Z,3.37
2022-10-07T06:57:01.558Z,3.20
2022-10-07T06:59:30.128Z,4.40
2022-10-07T07:02:03.416Z,3.80
2022-10-07T07:04:31.627Z,4.47
2022-10-07T07:06:58.733Z,3.23
2022-10-07T07:09:26.144Z,4.00
2022-10-07T07:11:56.405Z,3.33
2022-10-07T07:14:28.804Z,3.73
2022-10-07T07:17:04.073Z,3.90
2022-10-07T07:19:31.159Z,3.27
2022-10-07T07:21:58.537Z,3.47
2022-10-07T07:24:27.006Z,4.40
2022-10-07T07:26:53.895Z,3.70
2022-10-07T07:29:22.313Z,3.43
2022-10-07T07:31:54.755Z,3.40
2022-10-07T07:34:25.755Z,3.80
2022-10-07T07:36:52.740Z,4.10
2022-10-07T07:39:23.079Z,3.40
2022-10-07T07:41:56.223Z,4.27
2022-10-07T07:44:24.372Z,3.37
2022-10-07T07:46:54.392Z,4.00
2022-10-07T07:49:24.089Z,3.03
2022-10-07T07:51:51.910Z,3.37
2022-10-07T07:54:27.406Z,3.37
2022-10-07T07:56:55.754Z,4.03
2022-10-07T07:59:25.198Z,3.27
2022-10-07T08:01:53.462Z,3.10
2022-10-07T08:04:20.262Z,3.37
2022-10-07T08:06:47.408Z,2.43
2022-10-07T08:09:14.425Z,3.30
2022-10-07T08:11:45.259Z,3.57
2022-10-07T08:14:16.326Z,3.17
2022-10-07T08:16:44.941Z,2.60
2022-10-07T08:19:12.423Z,2.73
2022-10-07T08:21:39.769Z,2.97
2022-10-07T08:24:12.409Z,2.95
2022-10-07T08:26:40.119Z,2.53
2022-10-07T08:29:11.204Z,2.65
2022-10-07T08:31:38.163Z,2.58
2022-10-07T08:34:06.342Z,2.63
2022-10-07T08:36:34.082Z,2.95
2022-10-07T08:39:02.091Z,2.42
2022-10-07T08:41:34.860Z,2.50
2022-10-07T08:44:16.698Z,2.20
2022-10-07T08:46:49.670Z,2.63
2022-10-07T08:49:20.056Z,2.60
2022-10-07T08:51:50.976Z,2.22
2022-10-07T08:54:24.355Z,2.00
2022-10-07T08:56:51.392Z,2.35
2022-10-07T08:59:18.105Z,1.98
2022-10-07T09:02:04.588Z,2.90
2022-10-07T09:04:46.248Z,2.50
2022-10-07T09:07:31.390Z,2.30
2022-10-07T09:10:06.948Z,2.67
2022-10-07T09:12:41.813Z,2.42
2022-10-07T09:15:19.149Z,2.83
2022-10-07T09:17:54.282Z,2.63
2022-10-07T09:20:27.225Z,2.40
2022-10-07T09:22:57.519Z,2.70
2022-10-07T09:25:27.759Z,2.30
2022-10-07T09:27:55.053Z,2.35
2022-10-07T09:30:23.601Z,2.65
2022-10-07T09:32:56.205Z,1.77
2022-10-07T09:35:26.313Z,2.13
2022-10-07T09:38:09.287Z,2.10
2022-10-07T09:41:01.095Z,2.47
2022-10-07T09:43:29.194Z,2.03
2022-10-07T09:45:57.103Z,2.47
2022-10-07T09:48:27.394Z,1.85
2022-10-07T09:51:16.104Z,2.45
2022-10-07T09:54:04.133Z,2.40
2022-10-07T09:56:42.864Z,2.17
2022-10-07T09:59:24.187Z,2.10
2022-10-07T10:02:15.428Z,2.00
2022-10-07T10:04:54.318Z,2.15
2022-10-07T10:07:26.948Z,2.17
2022-10-07T10:09:57.222Z,2.38
2022-10-07T10:12:26.492Z,2.15
2022-10-07T10:14:56.092Z,2.25
2022-10-07T10:17:39.697Z,2.40
2022-10-07T10:20:32.729Z,2.33
2022-10-07T10:23:02.123Z,2.22
2022-10-07T10:25:50.273Z,1.88
2022-10-07T10:28:50.255Z,2.20
2022-10-07T10:31:50.418Z,2.00
2022-10-07T10:34:35.489Z,2.47
2022-10-07T10:37:14.669Z,2.10
2022-10-07T10:40:03.387Z,2.22
2022-10-07T10:42:59.337Z,2.05
2022-10-07T10:45:32.230Z,2.20
2022-10-07T10:48:36.991Z,2.22
2022-10-07T10:51:25.243Z,2.25
2022-10-07T10:54:13.173Z,2.10
2022-10-07T10:57:04.991Z,2.20
2022-10-07T11:00:05.047Z,2.20
2022-10-07T11:02:38.021Z,1.80
2022-10-07T11:05:25.499Z,1.98
2022-10-07T11:08:38.949Z,1.83
2022-10-07T11:11:21.968Z,2.20
2022-10-07T11:13:54.625Z,2.33
2022-10-07T11:16:27.799Z,1.80
2022-10-07T11:19:39.174Z,1.80
2022-10-07T11:22:15.149Z,1.73
2022-10-07T11:24:54.898Z,2.10
2022-10-07T11:27:29.618Z,1.95
2022-10-07T11:30:03.533Z,1.90
2022-10-07T11:33:05.298Z,2.05
2022-10-07T11:35:36.087Z,1.98
2022-10-07T11:38:13.093Z,1.83
2022-10-07T11:40:57.351Z,1.63
2022-10-07T11:43:39.049Z,1.67
2022-10-07T11:46:20.971Z,1.90
2022-10-07T11:48:52.558Z,2.38
2022-10-07T11:51:34.370Z,1.45
2022-10-07T11:54:04.407Z,2.30
2022-10-07T11:56:44.530Z,1.67
2022-10-07T11:59:26.798Z,1.38
2022-10-07T12:01:53.727Z,1.58
2022-10-07T12:04:29.674Z,1.80
2022-10-07T12:07:33.778Z,1.80
2022-10-07T12:10:03.542Z,2.05
2022-10-07T12:12:42.408Z,2.38
2022-10-07T12:15:28.947Z,1.77
2022-10-07T12:18:04.802Z,1.73
2022-10-07T12:20:34.652Z,1.95
2022-10-07T12:23:22.616Z,1.50
2022-10-07T12:26:31.045Z,1.48
2022-10-07T12:28:58.784Z,1.67
2022-10-07T12:31:25.608Z,1.90
2022-10-07T12:34:10.097Z,1.90
2022-10-07T12:36:42.892Z,1.55
2022-10-07T12:39:09.810Z,1.70
2022-10-07T12:41:39.973Z,1.77
2022-10-07T12:44:22.822Z,1.67
2022-10-07T12:46:50.958Z,1.77
2022-10-07T12:49:41.051Z,1.60
2022-10-07T12:52:14.775Z,2.53
2022-10-07T12:54:46.378Z,1.52
2022-10-07T12:57:18.412Z,1.55
2022-10-07T13:00:15.783Z,1.80
2022-10-07T13:03:17.087Z,1.40
2022-10-07T13:06:09.877Z,1.45
2022-10-07T13:08:57.191Z,1.58
2022-10-07T13:11:33.078Z,2.25
2022-10-07T13:14:13.791Z,1.70
2022-10-07T13:16:40.520Z,1.75
2022-10-07T13:19:21.847Z,1.42
2022-10-07T13:22:12.580Z,1.50
2022-10-07T13:24:49.904Z,1.50
2022-10-07T13:27:32.654Z,1.50
2022-10-07T13:30:01.868Z,1.45
2022-10-07T13:32:31.309Z,1.70
2022-10-07T13:34:59.852Z,1.33
2022-10-07T13:37:33.110Z,2.22
2022-10-07T13:40:39.396Z,1.50
2022-10-07T13:43:08.747Z,1.23
2022-10-07T13:45:45.146Z,1.98
2022-10-07T13:48:22.166Z,1.77
2022-10-07T13:50:50.735Z,1.27
2022-10-07T13:53:28.454Z,1.45
2022-10-07T13:56:25.682Z,1.48
2022-10-07T13:58:55.139Z,1.50
2022-10-07T14:01:27.199Z,1.40
2022-10-07T14:04:10.448Z,1.52
2022-10-07T14:06:43.859Z,2.00
2022-10-07T14:09:35.734Z,1.80
2022-10-07T14:12:09.194Z,1.90
2022-10-07T14:14:52.332Z,1.55
2022-10-07T14:17:43.195Z,2.10
2022-10-07T14:20:38.601Z,1.90
2022-10-07T14:23:07.938Z,2.08
2022-10-07T14:25:53.158Z,2.28
2022-10-07T14:28:29.237Z,1.92
2022-10-07T14:31:40.450Z,1.90
2022-10-07T14:34:37.289Z,1.63
2022-10-07T14:37:27.274Z,1.58
2022-10-07T14:39:57.777Z,1.70
2022-10-07T14:42:27.556Z,2.50
2022-10-07T14:44:56.424Z,2.40
2022-10-07T14:47:28.469Z,1.80
2022-10-07T14:49:58.149Z,1.52
2022-10-07T14:52:43.575Z,2.13
2022-10-07T14:55:27.850Z,2.22
2022-10-07T14:57:55.273Z,2.67
2022-10-07T15:00:34.888Z,2.80
2022-10-07T15:03:06.055Z,2.90
2022-10-07T15:05:33.946Z,2.85
2022-10-07T15:08:01.479Z,2.28
2022-10-07T15:10:28.812Z,2.17
2022-10-07T15:12:56.148Z,2.47
2022-10-07T15:15:23.058Z,1.70
2022-10-07T15:17:49.886Z,1.73
2022-10-07T15:20:17.541Z,2.03
2022-10-07T15:22:45.904Z,1.80
2022-10-07T15:25:15.223Z,2.08
2022-10-07T15:27:42.852Z,1.50
2022-10-07T15:30:10.520Z,1.58
2022-10-07T15:32:37.244Z,1.90
2022-10-07T15:35:04.207Z,1.98
2022-10-07T15:37:32.304Z,1.77
2022-10-07T15:39:59.125Z,2.47
2022-10-07T15:42:26.436Z,1.65
2022-10-07T15:44:54.235Z,2.08
2022-10-07T15:47:21.012Z,1.60
2022-10-07T15:49:49.128Z,1.55
2022-10-07T15:52:16.150Z,1.63
2022-10-07T15:54:43.615Z,2.03
2022-10-07T15:57:10.357Z,1.85
2022-10-07T15:59:37.175Z,2.20
2022-10-07T16:02:05.940Z,2.40
2022-10-07T16:04:32.988Z,1.75
2022-10-07T16:06:59.868Z,2.10
2022-10-07T16:09:26.782Z,1.70
2022-10-07T16:11:54.005Z,1.30
2022-10-07T16:14:20.807Z,2.40
2022-10-07T16:16:47.553Z,1.55
2022-10-07T16:19:14.359Z,1.73
2022-10-07T16:21:42.766Z,1.90
2022-10-07T16:24:18.053Z,1.60
2022-10-07T16:26:45.810Z,1.27
2022-10-07T16:29:34.169Z,1.92
2022-10-07T16:32:01.366Z,2.10
2022-10-07T16:34:28.729Z,1.30
2022-10-07T16:36:56.897Z,1.80
2022-10-07T16:39:24.057Z,1.70
2022-10-07T16:41:55.501Z,1.88
2022-10-07T16:44:22.463Z,1.55
2022-10-07T16:46:49.693Z,1.58
2022-10-07T16:49:18.198Z,1.35
2022-10-07T16:51:46.470Z,1.63
2022-10-07T16:54:16.702Z,1.95
2022-10-07T16:56:49.862Z,1.42
2022-10-07T16:59:24.447Z,1.80
2022-10-07T17:01:56.458Z,1.57
2022-10-07T17:04:24.985Z,1.40
2022-10-07T17:06:52.165Z,1.50
2022-10-07T17:09:18.946Z,1.90
2022-10-07T17:11:46.687Z,1.63
2022-10-07T17:14:19.030Z,2.07
2022-10-07T17:16:56.035Z,1.90
2022-10-07T17:19:25.838Z,1.67
2022-10-07T17:21:54.397Z,1.48
2022-10-07T17:24:22.937Z,1.92
2022-10-07T17:26:52.368Z,1.70
2022-10-07T17:29:20.828Z,1.65
2022-10-07T17:31:50.528Z,1.60
2022-10-07T17:34:19.921Z,1.27
2022-10-07T17:36:47.979Z,1.80
2022-10-07T17:39:15.666Z,1.83
2022-10-07T17:41:42.461Z,1.38
2022-10-07T17:44:11.709Z,1.50
2022-10-07T17:46:40.002Z,1.63
2022-10-07T17:49:09.371Z,1.88
2022-10-07T17:51:37.463Z,1.70
2022-10-07T17:54:06.028Z,2.40
2022-10-07T17:56:34.648Z,1.70
2022-10-07T17:59:01.885Z,1.90
2022-10-07T18:01:30.969Z,1.50
2022-10-07T18:04:00.307Z,1.55
2022-10-07T18:06:33.694Z,1.87
2022-10-07T18:09:04.483Z,1.90
2022-10-07T18:11:50.517Z,1.50
2022-10-07T18:14:54.105Z,2.38
2022-10-07T18:17:21.378Z,1.58
2022-10-07T18:19:48.229Z,1.90
2022-10-07T18:22:15.069Z,1.60
2022-10-07T18:24:42.410Z,1.80
2022-10-07T18:27:09.245Z,1.80
2022-10-07T18:29:38.916Z,2.08
2022-10-07T18:32:06.972Z,2.00
2022-10-07T18:34:34.173Z,2.20
2022-10-07T18:37:01.613Z,1.83
2022-10-07T18:39:29.583Z,1.90
2022-10-07T18:41:56.968Z,1.77
2022-10-07T18:44:24.046Z,1.67
2022-10-07T18:46:51.530Z,2.10
2022-10-07T18:49:18.439Z,2.07
2022-10-07T18:51:47.112Z,1.95
2022-10-07T18:54:13.983Z,2.20
2022-10-07T18:56:41.606Z,2.87
2022-10-07T18:59:09.978Z,1.80
2022-10-07T19:01:37.698Z,2.60
2022-10-07T19:04:07.065Z,3.05
2022-10-07T19:06:36.862Z,2.57
2022-10-07T19:09:09.127Z,2.40
2022-10-07T19:11:35.922Z,2.73
2022-10-07T19:14:03.346Z,1.90
2022-10-07T19:16:35.570Z,2.00
2022-10-07T19:19:12.215Z,2.30
2022-10-07T19:21:39.474Z,2.20
2022-10-07T19:24:07.219Z,2.42
2022-10-07T19:26:37.108Z,2.00
2022-10-07T19:29:05.829Z,2.37
2022-10-07T19:31:35.675Z,2.17
2022-10-07T19:34:12.121Z,2.30
2022-10-07T19:36:42.496Z,2.20
2022-10-07T19:39:10.659Z,2.50
2022-10-07T19:41:37.765Z,2.27
2022-10-07T19:44:05.579Z,2.23
2022-10-07T19:46:33.626Z,1.83
2022-10-07T19:49:02.046Z,2.40
2022-10-07T19:51:30.996Z,2.27
2022-10-07T19:53:59.416Z,2.17
2022-10-07T19:56:31.838Z,2.70
2022-10-07T19:59:01.496Z,2.60
2022-10-07T20:01:34.427Z,2.60
2022-10-07T20:04:06.928Z,2.30
2022-10-07T20:06:38.810Z,2.60
2022-10-07T20:09:07.568Z,2.10
2022-10-07T20:11:34.686Z,2.60
2022-10-07T20:14:02.932Z,2.27
2022-10-07T20:16:31.174Z,2.40
2022-10-07T20:19:05.747Z,1.90
2022-10-07T20:21:35.866Z,2.43
2022-10-07T20:24:04.012Z,2.60
2022-10-07T20:26:33.892Z,2.50
2022-10-07T20:29:02.165Z,2.00
2022-10-07T20:31:32.049Z,2.23
2022-10-07T20:34:00.166Z,2.30
2022-10-07T20:36:32.034Z,2.07
2022-10-07T20:39:37.404Z,2.10
2022-10-07T20:42:24.850Z,2.77
2022-10-07T20:44:52.602Z,2.50
2022-10-07T20:47:20.852Z,2.07
2022-10-07T20:49:50.547Z,2.40
2022-10-07T20:52:23.064Z,2.40
2022-10-07T20:54:51.123Z,2.43
2022-10-07T20:57:33.341Z,2.77
2022-10-07T21:00:00.153Z,2.40
2022-10-07T21:02:28.505Z,1.90
2022-10-07T21:04:55.382Z,2.13
2022-10-07T21:07:22.194Z,2.53
2022-10-07T21:09:49.102Z,2.20
2022-10-07T21:12:18.069Z,2.57
2022-10-07T21:14:44.979Z,1.53
2022-10-07T21:17:12.371Z,2.20
2022-10-07T21:19:40.053Z,2.23
2022-10-07T21:22:07.708Z,1.90
2022-10-07T21:24:34.815Z,2.53
2022-10-07T21:27:06.877Z,2.07
2022-10-07T21:29:37.428Z,2.17
2022-10-07T21:32:06.474Z,1.77
2022-10-07T21:34:33.321Z,2.30
2022-10-07T21:37:00.635Z,1.90
2022-10-07T21:39:27.505Z,2.40
2022-10-07T21:41:54.995Z,2.53
2022-10-07T21:44:21.769Z,2.13
2022-10-07T21:46:48.579Z,1.70
2022-10-07T21:49:16.247Z,2.00
2022-10-07T21:51:43.911Z,1.43
2022-10-07T21:54:14.512Z,1.83
2022-10-07T21:56:43.564Z,1.73
2022-10-07T21:59:10.406Z,1.90
2022-10-07T22:01:38.642Z,2.07
2022-10-07T22:04:06.107Z,1.93
2022-10-07T22:06:51.878Z,2.00
2022-10-07T22:09:21.103Z,1.60
2022-10-07T22:11:48.784Z,1.90
2022-10-07T22:14:15.774Z,2.20
2022-10-07T22:16:42.575Z,2.07
2022-10-07T22:19:10.722Z,1.83
2022-10-07T22:21:40.271Z,1.73
2022-10-07T22:24:08.455Z,2.07
2022-10-07T22:26:45.733Z,1.50
2022-10-07T22:29:14.125Z,2.00
2022-10-07T22:31:41.898Z,1.60
2022-10-07T22:34:08.791Z,1.67
2022-10-07T22:36:36.886Z,1.63
2022-10-07T22:39:03.967Z,1.83
2022-10-07T22:41:30.975Z,1.20
2022-10-07T22:43:59.075Z,1.40
2022-10-07T22:46:27.821Z,1.63
2022-10-07T22:48:58.346Z,1.97
2022-10-07T22:51:29.501Z,1.87
2022-10-07T22:53:56.954Z,2.20
2022-10-07T22:56:26.295Z,2.50
2022-10-07T22:58:58.154Z,1.73
2022-10-07T23:01:28.553Z,1.63
2022-10-07T23:03:56.199Z,2.13
2022-10-07T23:06:23.136Z,1.73
2022-10-07T23:08:49.987Z,2.03
2022-10-07T23:11:20.061Z,2.20
2022-10-07T23:13:46.962Z,1.90
2022-10-07T23:16:22.566Z,2.00
2022-10-07T23:18:50.453Z,1.70
2022-10-07T23:21:23.352Z,1.70
2022-10-07T23:23:52.181Z,2.07
2022-10-07T23:26:22.744Z,1.83
2022-10-07T23:28:51.608Z,2.57
2022-10-07T23:31:21.291Z,2.70
2022-10-07T23:33:49.866Z,2.50
2022-10-07T23:36:20.119Z,2.57
2022-10-07T23:38:47.960Z,2.90
2022-10-07T23:41:18.204Z,2.40
2022-10-07T23:43:45.084Z,2.33
2022-10-07T23:46:14.345Z,2.70
2022-10-07T23:48:42.200Z,2.80
2022-10-07T23:51:11.692Z,2.37
2022-10-07T23:53:39.227Z,2.53
2022-10-07T23:56:06.437Z,2.43
2022-10-07T23:58:34.365Z,2.60
